Time;durP1;ratioP1;P1;durP2;ratioP2;P2;SDS_P1;SDS_P2;PMS_P1;PMS_P2;Temp;Humidity;BMP_temperature;BMP_pressure;BME280_temperature;BME280_humidity;BME280_pressure;Samples;Min_cycle;Max_cycle;Signal;HPM_P1;HPM_P2
2023/12/21 00:00:33;;;;;;;9.18;5.45;;;;;;;9.21;92.47;100724.22;5076896;28;20048;-69
2023/12/21 00:02:58;;;;;;;9.45;5.35;;;;;;;9.22;92.42;100719.53;5081719;28;20024;-69
2023/12/21 00:05:24;;;;;;;10.85;5.13;;;;;;;9.24;91.85;100731.22;5082318;28;20028;-69
2023/12/21 00:07:49;;;;;;;8.00;5.20;;;;;;;9.23;92.65;100708.19;5080120;28;20039;-69
2023/12/21 00:10:14;;;;;;;11.70;5.35;;;;;;;9.26;92.17;100704.09;5084860;28;20042;-69
2023/12/21 00:12:40;;;;;;;14.10;5.63;;;;;;;9.25;92.03;100694.09;5081972;28;20495;-69
2023/12/21 00:15:06;;;;;;;11.93;5.55;;;;;;;9.22;92.25;100689.06;5074654;28;20804;-69
2023/12/21 00:17:32;;;;;;;13.68;5.65;;;;;;;9.24;92.10;100684.13;5080718;28;20035;-69
2023/12/21 00:19:57;;;;;;;12.20;5.78;;;;;;;9.23;92.26;100679.66;5080022;28;20600;-69
2023/12/21 00:22:22;;;;;;;10.73;5.07;;;;;;;9.23;92.45;100682.41;5082472;28;20020;-69
2023/12/21 00:24:47;;;;;;;15.20;6.40;;;;;;;9.23;92.32;100677.72;5078630;28;20115;-69
2023/12/21 00:27:15;;;;;;;10.95;5.25;;;;;;;9.23;92.28;100666.66;5081405;28;20028;-68
2023/12/21 00:29:41;;;;;;;10.07;5.32;;;;;;;9.26;92.27;100659.78;5081783;28;20088;-69
2023/12/21 00:32:06;;;;;;;9.48;5.45;;;;;;;9.28;92.20;100657.63;5080888;28;20047;-69
2023/12/21 00:34:31;;;;;;;12.57;5.50;;;;;;;9.26;91.96;100655.06;5080246;28;20028;-69
2023/12/21 00:36:56;;;;;;;8.15;5.13;;;;;;;9.28;92.24;100641.00;5083527;28;20032;-69
2023/12/21 00:39:25;;;;;;;13.52;5.90;;;;;;;9.29;91.97;100649.03;5077385;28;20114;-69
2023/12/21 00:41:50;;;;;;;15.90;5.28;;;;;;;9.30;92.14;100649.88;5085356;28;20539;-70
2023/12/21 00:44:15;;;;;;;9.55;5.72;;;;;;;9.31;92.03;100646.00;5076188;28;20124;-69
2023/12/21 00:46:41;;;;;;;11.65;6.22;;;;;;;9.30;92.29;100633.25;5078530;28;20063;-69
2023/12/21 00:49:09;;;;;;;12.20;6.30;;;;;;;9.31;92.08;100630.25;5075455;28;20477;-69
2023/12/21 00:51:34;;;;;;;16.10;6.85;;;;;;;9.27;92.42;100611.59;5077497;28;20089;-69
2023/12/21 00:53:59;;;;;;;12.65;6.15;;;;;;;9.30;92.44;100611.09;5079071;28;20028;-69
2023/12/21 00:56:24;;;;;;;13.45;6.88;;;;;;;9.30;92.16;100600.03;5079534;28;20012;-69
2023/12/21 00:58:50;;;;;;;9.32;6.70;;;;;;;9.29;92.54;100601.97;5079999;28;20111;-69
2023/12/21 01:01:15;;;;;;;11.88;7.07;;;;;;;9.31;92.31;100602.56;5080085;28;20028;-69
2023/12/21 01:03:40;;;;;;;11.93;6.70;;;;;;;9.31;92.39;100596.16;5083332;28;20029;-69
2023/12/21 01:06:06;;;;;;;11.30;6.47;;;;;;;9.31;92.48;100591.47;5077499;28;20039;-69
2023/12/21 01:08:31;;;;;;;12.68;6.95;;;;;;;9.34;92.50;100587.34;5081014;28;20382;-69
2023/12/21 01:10:56;;;;;;;11.73;6.35;;;;;;;9.34;91.93;100573.50;5079531;28;20033;-70
2023/12/21 01:13:21;;;;;;;14.27;7.20;;;;;;;9.32;92.29;100570.16;5079438;28;20647;-69
2023/12/21 01:15:47;;;;;;;13.02;6.70;;;;;;;9.30;92.54;100566.78;5081587;28;20115;-69
2023/12/21 01:18:12;;;;;;;11.05;6.72;;;;;;;9.31;92.31;100561.00;5081157;28;20792;-69
2023/12/21 01:20:37;;;;;;;8.38;5.88;;;;;;;9.34;92.12;100546.63;5080417;28;20032;-69
2023/12/21 01:23:03;;;;;;;12.60;6.68;;;;;;;9.35;92.26;100558.56;5083373;28;20514;-69
2023/12/21 01:25:28;;;;;;;11.25;5.82;;;;;;;9.36;92.40;100568.56;5077873;28;20032;-69
2023/12/21 01:27:53;;;;;;;10.40;5.70;;;;;;;9.32;92.53;100556.31;5082781;28;20040;-69
2023/12/21 01:30:21;;;;;;;11.85;5.57;;;;;;;9.35;92.34;100572.41;5081089;28;20483;-70
2023/12/21 01:32:46;;;;;;;8.68;6.25;;;;;;;9.36;92.29;100557.47;5082645;28;20032;-69
2023/12/21 01:35:11;;;;;;;10.98;6.20;;;;;;;9.31;92.29;100551.84;5084748;28;20127;-69
2023/12/21 01:37:39;;;;;;;12.55;6.10;;;;;;;9.29;92.61;100542.97;5080931;28;20108;-69
2023/12/21 01:40:05;;;;;;;12.20;5.57;;;;;;;9.31;92.86;100535.22;5083514;28;20084;-69
2023/12/21 01:42:30;;;;;;;12.75;6.22;;;;;;;9.30;93.06;100533.56;5082723;28;20029;-69
2023/12/21 01:44:56;;;;;;;11.10;5.95;;;;;;;9.29;92.69;100542.97;5082125;28;20024;-69
2023/12/21 01:47:21;;;;;;;14.30;6.00;;;;;;;9.27;92.93;100531.28;5085747;28;20020;-69
2023/12/21 01:49:48;;;;;;;13.10;6.20;;;;;;;9.29;92.66;100538.25;5080361;28;20551;-70
2023/12/21 01:52:14;;;;;;;11.65;6.30;;;;;;;9.27;92.87;100532.13;5084436;28;20119;-69
2023/12/21 01:54:41;;;;;;;10.85;6.30;;;;;;;9.31;93.08;100515.84;5083311;28;20041;-69
2023/12/21 01:57:06;;;;;;;11.45;7.00;;;;;;;9.32;92.71;100510.06;5082217;28;20372;-69
2023/12/21 01:59:32;;;;;;;14.63;7.07;;;;;;;9.34;92.52;100518.09;5082120;28;20109;-69
2023/12/21 02:01:57;;;;;;;10.23;7.55;;;;;;;9.32;92.50;100512.00;5080195;28;20394;-69
2023/12/21 02:04:24;;;;;;;12.98;6.55;;;;;;;9.34;92.71;100518.94;5077155;28;20040;-70
2023/12/21 02:06:49;;;;;;;11.18;7.15;;;;;;;9.36;92.64;100521.47;5082657;28;20089;-69
2023/12/21 02:09:15;;;;;;;13.43;7.55;;;;;;;9.36;92.51;100527.00;5082156;28;20025;-70
2023/12/21 02:11:40;;;;;;;12.80;7.93;;;;;;;9.40;92.38;100535.66;5081727;28;20032;-69
2023/12/21 02:14:08;;;;;;;17.00;8.77;;;;;;;9.40;92.37;100527.34;5079467;28;20039;-69
2023/12/21 02:16:59;;;;;;;13.15;8.23;;;;;;;9.42;92.46;100528.75;5079261;28;20031;-69
2023/12/21 02:19:25;;;;;;;16.15;8.30;;;;;;;9.42;92.05;100508.53;5078903;28;20470;-69
2023/12/21 02:21:51;;;;;;;13.05;8.80;;;;;;;9.37;92.06;100514.84;5085132;28;20032;-69
2023/12/21 02:24:17;;;;;;;15.48;8.20;;;;;;;9.35;92.32;100517.00;5077770;28;20031;-69
2023/12/21 02:26:43;;;;;;;18.35;7.93;;;;;;;9.35;92.24;100514.22;5086319;28;20092;-69
2023/12/21 02:29:09;;;;;;;12.75;7.30;;;;;;;9.38;92.41;100496.28;5086899;28;20045;-69
2023/12/21 02:31:35;;;;;;;13.95;7.53;;;;;;;9.39;92.49;100498.78;5082913;28;20067;-69
2023/12/21 02:34:00;;;;;;;14.50;7.47;;;;;;;9.40;92.54;100475.56;5087302;28;20141;-69
2023/12/21 02:36:26;;;;;;;13.90;7.40;;;;;;;9.41;92.19;100471.69;5083842;28;20036;-69
2023/12/21 02:38:52;;;;;;;13.95;7.95;;;;;;;9.42;92.19;100476.13;5079620;28;20048;-69
2023/12/21 02:41:17;;;;;;;14.68;7.63;;;;;;;9.43;92.16;100461.19;5082395;28;20023;-69
2023/12/21 02:43:42;;;;;;;16.48;7.80;;;;;;;9.43;92.08;100463.09;5083205;28;20043;-69
2023/12/21 02:46:07;;;;;;;12.48;6.70;;;;;;;9.43;92.12;100457.56;5080446;28;20118;-69
2023/12/21 02:48:33;;;;;;;16.08;7.05;;;;;;;9.41;92.47;100471.69;5081741;28;20032;-69
2023/12/21 02:51:02;;;;;;;15.38;7.93;;;;;;;9.42;92.08;100462.28;5082389;28;20040;-69
2023/12/21 02:53:28;;;;;;;13.93;7.22;;;;;;;9.39;91.98;100462.78;5081877;28;20409;-69
2023/12/21 02:55:53;;;;;;;11.32;6.90;;;;;;;9.43;92.01;100460.34;5077585;28;20024;-69
2023/12/21 02:58:18;;;;;;;14.82;7.65;;;;;;;9.46;92.36;100451.53;5079412;28;20028;-69
2023/12/21 03:00:46;;;;;;;14.65;6.82;;;;;;;9.47;92.08;100454.06;5078148;28;20520;-69
2023/12/21 03:03:11;;;;;;;16.13;6.72;;;;;;;9.46;92.12;100449.59;5074962;28;20082;-69
2023/12/21 03:05:37;;;;;;;17.90;6.95;;;;;;;9.40;92.39;100445.09;5077188;28;20075;-69
2023/12/21 03:08:05;;;;;;;14.73;7.00;;;;;;;9.41;92.18;100446.75;5077625;28;20036;-69
2023/12/21 03:10:31;;;;;;;14.55;6.55;;;;;;;9.43;92.07;100439.03;5078967;28;20085;-69
2023/12/21 03:12:56;;;;;;;12.50;6.22;;;;;;;9.45;92.02;100425.75;5084444;28;20101;-70
2023/12/21 03:15:21;;;;;;;16.10;6.13;;;;;;;9.46;92.41;100427.44;5082973;28;20035;-69
2023/12/21 03:17:47;;;;;;;13.20;5.85;;;;;;;9.48;92.10;100405.84;5074569;28;20029;-69
2023/12/21 03:20:15;;;;;;;16.42;5.70;;;;;;;9.47;91.94;100378.38;5082772;28;20058;-69
2023/12/21 03:22:41;;;;;;;10.98;5.10;;;;;;;9.48;91.96;100361.53;5081317;28;20028;-69
2023/12/21 03:25:06;;;;;;;13.50;5.22;;;;;;;9.48;92.09;100353.22;5077625;28;20487;-69
2023/12/21 03:27:32;;;;;;;16.02;6.50;;;;;;;9.48;92.00;100349.63;5078989;28;20044;-68
2023/12/21 03:29:57;;;;;;;15.13;5.60;;;;;;;9.46;92.06;100344.31;5074254;28;20111;-68
2023/12/21 03:32:22;;;;;;;14.02;5.18;;;;;;;9.46;91.98;100344.31;5079982;28;20035;-68
2023/12/21 03:34:48;;;;;;;13.32;6.25;;;;;;;9.48;91.71;100353.22;5078308;28;20422;-69
2023/12/21 03:37:14;;;;;;;16.58;5.18;;;;;;;9.48;91.92;100331.06;5079396;28;20032;-68
2023/12/21 03:39:39;;;;;;;14.55;5.22;;;;;;;9.48;92.14;100346.84;5080371;28;20051;-69
2023/12/21 03:42:04;;;;;;;12.00;4.57;;;;;;;9.45;92.13;100326.03;5078883;28;20040;-69
2023/12/21 03:44:30;;;;;;;16.67;5.28;;;;;;;9.47;92.29;100315.53;5081538;28;20028;-68
2023/12/21 03:46:55;;;;;;;15.30;5.25;;;;;;;9.49;92.20;100312.50;5078450;28;20044;-69
2023/12/21 03:49:20;;;;;;;14.40;5.28;;;;;;;9.48;92.23;100313.59;5084574;28;20078;-68
2023/12/21 03:51:46;;;;;;;14.55;5.95;;;;;;;9.49;92.24;100290.34;5078068;28;20043;-69
2023/12/21 03:54:11;;;;;;;12.02;4.82;;;;;;;9.50;92.13;100301.16;5078870;28;20467;-68
2023/12/21 03:56:40;;;;;;;13.57;5.30;;;;;;;9.50;92.27;100306.69;5074074;28;20032;-69
2023/12/21 03:59:05;;;;;;;12.77;5.13;;;;;;;9.50;92.24;100306.69;5079093;28;20024;-68
2023/12/21 04:01:31;;;;;;;19.00;5.72;;;;;;;9.50;92.13;100287.28;5077708;28;20135;-68
2023/12/21 04:03:56;;;;;;;18.65;6.22;;;;;;;9.51;91.99;100275.16;5078544;28;20023;-68
2023/12/21 04:06:22;;;;;;;15.18;6.38;;;;;;;9.51;91.94;100283.44;5076057;28;20036;-68
2023/12/21 04:08:53;;;;;;;17.13;7.05;;;;;;;9.47;91.83;100282.31;5078177;28;20131;-68
2023/12/21 04:11:18;;;;;;;18.00;6.30;;;;;;;9.45;92.09;100276.16;5082443;28;20509;-68
2023/12/21 04:13:46;;;;;;;18.63;6.50;;;;;;;9.45;92.31;100284.47;5077096;28;20072;-68
2023/12/21 04:16:11;;;;;;;19.67;6.97;;;;;;;9.47;92.35;100274.00;5074968;28;20483;-68
2023/12/21 04:18:37;;;;;;;18.55;6.65;;;;;;;9.49;91.82;100259.88;5077195;28;20039;-68
2023/12/21 04:21:02;;;;;;;14.35;6.93;;;;;;;9.48;91.68;100253.50;5083685;28;20081;-68
2023/12/21 04:23:28;;;;;;;18.20;8.15;;;;;;;9.48;91.09;100247.94;5076786;28;20108;-68
2023/12/21 04:25:53;;;;;;;19.40;7.93;;;;;;;9.50;91.51;100239.38;5079139;28;20452;-69
2023/12/21 04:28:19;;;;;;;18.67;8.15;;;;;;;9.50;91.23;100240.19;5079261;28;20151;-68
2023/12/21 04:30:44;;;;;;;20.60;8.15;;;;;;;9.52;90.94;100235.25;5078910;28;20028;-69
2023/12/21 04:33:11;;;;;;;15.68;8.05;;;;;;;9.52;91.13;100231.66;5079385;28;20051;-68
2023/12/21 04:35:36;;;;;;;18.80;8.85;;;;;;;9.52;90.85;100221.41;5076289;28;20039;-68
2023/12/21 04:38:02;;;;;;;25.10;9.43;;;;;;;9.53;91.02;100223.06;5059249;28;20384;-69
2023/12/21 04:40:28;;;;;;;17.88;9.27;;;;;;;9.55;90.75;100209.81;5082356;28;20068;-68
2023/12/21 04:42:55;;;;;;;16.02;9.05;;;;;;;9.54;90.48;100190.66;5077709;28;20103;-69
2023/12/21 04:45:22;;;;;;;18.73;9.00;;;;;;;9.54;90.64;100197.03;5073096;28;20471;-69
2023/12/21 04:47:47;;;;;;;17.65;8.70;;;;;;;9.56;90.52;100203.16;5083016;28;20036;-68
2023/12/21 04:50:13;;;;;;;19.60;8.75;;;;;;;9.55;90.48;100209.81;5078672;28;20028;-68
2023/12/21 04:52:38;;;;;;;18.90;8.73;;;;;;;9.54;90.39;100183.16;5085701;28;20173;-68
2023/12/21 04:55:04;;;;;;;16.88;8.68;;;;;;;9.55;90.31;100171.00;5074429;28;20067;-68
2023/12/21 04:57:29;;;;;;;22.27;8.75;;;;;;;9.57;90.46;100168.81;5071157;28;20053;-68
2023/12/21 04:59:55;;;;;;;19.58;7.75;;;;;;;9.58;90.18;100159.38;5074753;28;20089;-68
2023/12/21 05:02:26;;;;;;;18.63;7.85;;;;;;;9.59;90.50;100141.69;5077582;28;20044;-68
2023/12/21 05:04:54;;;;;;;14.70;7.70;;;;;;;9.61;89.82;100151.66;5075852;28;20025;-68
2023/12/21 05:07:19;;;;;;;16.45;7.03;;;;;;;9.62;90.03;100136.69;5081135;28;20028;-68
2023/12/21 05:09:45;;;;;;;15.18;7.00;;;;;;;9.62;89.79;100125.59;5071648;28;20051;-68
2023/12/21 05:12:10;;;;;;;14.63;6.82;;;;;;;9.65;89.91;100131.47;5075558;28;20081;-69
2023/12/21 05:14:35;;;;;;;14.98;7.05;;;;;;;9.65;90.09;100133.41;5079984;28;20119;-68
2023/12/21 05:17:00;;;;;;;13.98;6.35;;;;;;;9.65;89.71;100138.94;5079283;28;20102;-68
2023/12/21 05:19:28;;;;;;;16.35;6.78;;;;;;;9.66;89.65;100135.91;5076412;28;20033;-68
2023/12/21 05:21:54;;;;;;;14.68;5.90;;;;;;;9.66;89.73;100137.84;5073017;28;20758;-69
2023/12/21 05:24:22;;;;;;;14.40;6.00;;;;;;;9.66;89.64;100149.75;5085596;28;20036;-68
2023/12/21 05:26:47;;;;;;;13.95;6.30;;;;;;;9.66;89.54;100141.44;5074991;28;20103;-68
2023/12/21 05:29:13;;;;;;;17.92;5.72;;;;;;;9.67;89.44;100133.97;5074322;28;20056;-68
2023/12/21 05:31:42;;;;;;;11.02;5.47;;;;;;;9.67;89.62;100097.94;5079719;28;20033;-68
2023/12/21 05:34:07;;;;;;;13.80;5.55;;;;;;;9.68;89.41;100092.16;5084305;28;20024;-68
2023/12/21 05:36:32;;;;;;;18.92;5.57;;;;;;;9.68;89.26;100086.59;5075413;28;20694;-69
2023/12/21 05:39:03;;;;;;;10.35;4.82;;;;;;;9.68;89.24;100102.41;5081831;28;20113;-68
2023/12/21 05:41:29;;;;;;;11.40;4.85;;;;;;;9.67;89.16;100106.25;5071411;28;20040;-68
2023/12/21 05:44:00;;;;;;;14.52;5.00;;;;;;;9.68;89.30;100100.47;5087098;28;20036;-69
2023/12/21 05:46:25;;;;;;;14.73;4.70;;;;;;;9.67;89.15;100107.09;5072915;28;20062;-69
2023/12/21 05:48:51;;;;;;;14.77;4.57;;;;;;;9.71;89.34;100101.88;5069167;28;20351;-69
2023/12/21 05:51:16;;;;;;;13.25;4.38;;;;;;;9.70;89.18;100116.81;5083379;28;20039;-69
2023/12/21 05:53:41;;;;;;;11.65;3.70;;;;;;;9.73;89.24;100105.19;5085886;28;20027;-68
2023/12/21 05:56:07;;;;;;;10.30;3.42;;;;;;;9.74;89.06;100106.84;5071121;28;20403;-69
2023/12/21 05:58:33;;;;;;;9.45;3.47;;;;;;;9.76;88.93;100107.44;5079631;28;20479;-70
2023/12/21 06:00:59;;;;;;;8.40;3.92;;;;;;;9.76;89.05;100138.75;5084392;28;21026;-69
2023/12/21 06:03:24;;;;;;;9.65;3.72;;;;;;;9.77;89.26;100120.19;5080582;28;20153;-69
2023/12/21 06:05:49;;;;;;;15.95;4.32;;;;;;;9.79;89.45;100118.00;5070252;28;20028;-69
2023/12/21 06:08:15;;;;;;;9.75;4.00;;;;;;;9.79;89.75;100101.38;5080152;28;20032;-69
2023/12/21 06:10:40;;;;;;;9.07;4.05;;;;;;;9.79;89.97;100109.69;5087057;28;20055;-69
2023/12/21 06:13:05;;;;;;;9.75;4.28;;;;;;;9.77;90.51;100107.16;5080220;28;20032;-69
2023/12/21 06:15:31;;;;;;;12.55;4.53;;;;;;;9.76;91.06;100085.28;5079073;28;20025;-69
2023/12/21 06:17:56;;;;;;;10.98;4.90;;;;;;;9.76;91.04;100088.88;5079120;28;20095;-68
2023/12/21 06:20:22;;;;;;;9.25;4.63;;;;;;;9.74;91.71;100079.16;5086736;28;20037;-69
2023/12/21 06:22:47;;;;;;;14.70;5.72;;;;;;;9.75;91.72;100061.44;5078675;28;20030;-69
2023/12/21 06:25:12;;;;;;;12.32;5.30;;;;;;;9.77;92.13;100053.69;5072982;28;20110;-69
2023/12/21 06:27:38;;;;;;;21.35;6.05;;;;;;;9.75;91.77;100031.78;5087141;28;20084;-68
2023/12/21 06:30:04;;;;;;;15.77;6.35;;;;;;;9.71;91.97;100040.91;5085478;28;20031;-68
2023/12/21 06:32:30;;;;;;;12.93;5.95;;;;;;;9.73;92.13;100055.31;5087448;28;20124;-69
2023/12/21 06:34:55;;;;;;;8.43;5.80;;;;;;;9.73;91.99;100067.22;5085152;28;20115;-69
2023/12/21 06:37:20;;;;;;;7.43;5.40;;;;;;;9.75;92.13;100062.28;5073862;28;20073;-69
2023/12/21 06:39:46;;;;;;;10.98;5.28;;;;;;;9.76;92.08;100060.34;5078256;28;20380;-68
2023/12/21 06:42:11;;;;;;;11.73;5.55;;;;;;;9.76;92.16;100043.72;5082260;28;20033;-68
2023/12/21 06:44:39;;;;;;;12.80;5.03;;;;;;;9.74;92.11;100041.19;5074335;28;20030;-69
2023/12/21 06:47:05;;;;;;;14.45;5.07;;;;;;;9.73;92.06;100038.69;5073414;28;20368;-69
2023/12/21 06:49:30;;;;;;;11.35;5.10;;;;;;;9.74;91.77;100048.66;5079236;28;20024;-69
2023/12/21 06:51:55;;;;;;;13.32;4.95;;;;;;;9.74;91.92;100035.63;5086692;28;20050;-69
2023/12/21 06:54:21;;;;;;;10.02;4.40;;;;;;;9.75;92.06;100034.56;5090073;28;20145;-69
2023/12/21 06:56:46;;;;;;;9.98;4.32;;;;;;;9.78;92.06;100008.22;5079908;28;20032;-69
2023/12/21 06:59:12;;;;;;;13.55;4.63;;;;;;;9.76;91.81;100005.75;5072379;28;20032;-69
2023/12/21 07:01:40;;;;;;;11.85;3.90;;;;;;;9.76;91.99;100004.91;5076227;28;20028;-68
2023/12/21 07:04:07;;;;;;;10.15;3.60;;;;;;;9.77;92.02;99989.94;5078324;28;20034;-69
2023/12/21 07:06:32;;;;;;;11.93;3.85;;;;;;;9.76;91.62;100004.91;5075582;28;20032;-69
2023/12/21 07:08:57;;;;;;;10.00;3.80;;;;;;;9.76;92.02;99988.28;5074763;28;20031;-69
2023/12/21 07:11:26;;;;;;;9.85;3.53;;;;;;;9.77;91.67;99976.09;5080194;28;20479;-70
2023/12/21 07:13:51;;;;;;;9.95;3.30;;;;;;;9.79;91.75;99971.13;5089989;28;20569;-69
2023/12/21 07:16:17;;;;;;;14.13;4.20;;;;;;;9.79;91.55;99962.81;5087488;28;20078;-69
2023/12/21 07:18:42;;;;;;;9.55;3.85;;;;;;;9.78;91.49;99972.19;5084337;28;20052;-69
2023/12/21 07:21:07;;;;;;;10.77;3.75;;;;;;;9.79;91.55;99966.41;5076146;28;20044;-69
2023/12/21 07:23:32;;;;;;;11.65;4.32;;;;;;;9.80;91.36;99975.56;5078096;28;20040;-69
2023/12/21 07:25:58;;;;;;;11.90;4.35;;;;;;;9.79;91.28;99971.94;5079726;28;20523;-69
2023/12/21 07:28:25;;;;;;;10.98;3.95;;;;;;;9.80;91.20;99958.91;5079369;28;20053;-68
2023/12/21 07:30:51;;;;;;;11.00;4.57;;;;;;;9.80;90.75;99945.91;5080299;28;20104;-69
2023/12/21 07:33:16;;;;;;;11.07;3.67;;;;;;;9.80;90.84;99934.81;5085945;28;20112;-69
2023/12/21 07:35:41;;;;;;;9.85;3.67;;;;;;;9.82;90.74;99934.53;5080843;28;20475;-68
2023/12/21 07:38:07;;;;;;;11.02;4.00;;;;;;;9.82;90.46;99920.66;5076635;28;20028;-67
2023/12/21 07:40:32;;;;;;;10.70;3.17;;;;;;;9.84;90.20;99916.53;5088707;28;20444;-68
2023/12/21 07:42:57;;;;;;;8.27;3.30;;;;;;;9.85;89.83;99909.03;5075779;28;20033;-67
2023/12/21 07:45:23;;;;;;;10.90;3.50;;;;;;;9.85;89.86;99914.59;5082390;28;20766;-68
2023/12/21 07:47:48;;;;;;;6.85;3.22;;;;;;;9.91;89.81;99901.59;5077672;28;20035;-68
2023/12/21 07:50:13;;;;;;;9.20;3.10;;;;;;;9.90;89.50;99913.78;5073086;28;20032;-66
2023/12/21 07:52:45;;;;;;;8.82;3.33;;;;;;;9.93;89.50;99910.47;5080721;28;20479;-63
2023/12/21 07:55:10;;;;;;;7.82;3.10;;;;;;;9.91;89.81;99912.69;5080146;28;20042;-67
2023/12/21 07:57:35;;;;;;;10.13;3.30;;;;;;;9.93;90.25;99916.00;5078841;28;20032;-67
2023/12/21 08:00:01;;;;;;;8.52;2.90;;;;;;;9.93;90.28;99910.47;5076270;28;20065;-68
2023/12/21 08:02:32;;;;;;;7.88;3.55;;;;;;;9.91;90.59;99910.75;5077312;28;20036;-68
2023/12/21 08:05:00;;;;;;;9.47;3.30;;;;;;;9.93;90.88;99908.53;5072099;28;20036;-67
2023/12/21 08:07:25;;;;;;;8.60;2.75;;;;;;;9.92;91.28;99908.81;5079131;28;20312;-63
2023/12/21 08:09:51;;;;;;;5.85;2.90;;;;;;;9.92;91.40;99895.78;5082915;28;20036;-62
2023/12/21 08:12:16;;;;;;;8.32;2.70;;;;;;;9.92;91.63;99894.94;5085331;28;20040;-67
2023/12/21 08:14:42;;;;;;;8.20;2.80;;;;;;;9.93;91.85;99888.28;5086928;28;20032;-65
2023/12/21 08:17:09;;;;;;;5.80;2.88;;;;;;;9.90;92.31;99889.66;5088718;28;20467;-66
2023/12/21 08:19:37;;;;;;;6.35;3.03;;;;;;;9.89;92.40;99893.53;5079892;28;20086;-69
2023/12/21 08:22:02;;;;;;;9.38;3.05;;;;;;;9.89;92.79;99889.94;5089784;28;20036;-67
2023/12/21 08:24:27;;;;;;;7.97;2.88;;;;;;;9.90;92.89;99866.66;5072394;28;20021;-67
2023/12/21 08:26:54;;;;;;;7.25;2.83;;;;;;;9.89;92.93;99860.28;5082455;28;20028;-67
2023/12/21 08:29:19;;;;;;;7.63;2.85;;;;;;;9.92;93.17;99883.84;5076219;28;20101;-66
2023/12/21 08:31:44;;;;;;;5.88;2.90;;;;;;;9.93;92.99;99869.72;5072488;28;20024;-67
2023/12/21 08:34:11;;;;;;;7.30;2.83;;;;;;;9.93;93.34;99879.97;5081761;28;20068;-68
2023/12/21 08:36:36;;;;;;;6.60;2.70;;;;;;;9.92;93.33;99870.81;5087517;28;20498;-68
2023/12/21 08:39:03;;;;;;;7.20;3.25;;;;;;;9.92;94.11;99858.91;5090487;28;20072;-67
2023/12/21 08:41:28;;;;;;;7.50;2.92;;;;;;;9.91;93.77;99868.34;5090663;28;20103;-67
2023/12/21 08:43:55;;;;;;;5.60;3.17;;;;;;;9.91;93.95;99851.72;5090933;28;20131;-68
2023/12/21 08:46:20;;;;;;;7.35;2.80;;;;;;;9.93;93.94;99861.41;5087653;28;20020;-67
2023/12/21 08:48:46;;;;;;;6.28;2.97;;;;;;;9.94;93.84;99846.44;5080770;28;20035;-68
2023/12/21 08:51:12;;;;;;;4.40;2.47;;;;;;;9.93;93.88;99843.94;5090073;28;20055;-69
2023/12/21 08:53:38;;;;;;;6.75;2.67;;;;;;;9.90;94.24;99845.31;5087342;28;20059;-67
2023/12/21 08:56:03;;;;;;;5.20;2.58;;;;;;;9.93;94.15;99832.84;5070870;28;20056;-62
2023/12/21 08:58:32;;;;;;;6.32;2.80;;;;;;;9.89;94.09;99831.72;5069948;28;20032;-62
2023/12/21 09:00:58;;;;;;;3.70;2.70;;;;;;;9.92;94.08;99832.03;5080129;28;20040;-61
2023/12/21 09:03:24;;;;;;;6.78;2.78;;;;;;;9.94;94.39;99835.38;5080196;28;20032;-66
2023/12/21 09:05:49;;;;;;;6.50;2.70;;;;;;;9.96;93.97;99821.22;5076113;28;20024;-66
2023/12/21 09:08:15;;;;;;;7.50;2.92;;;;;;;9.98;93.94;99810.66;5079850;28;20109;-66
2023/12/21 09:10:40;;;;;;;5.70;2.33;;;;;;;9.97;93.61;99814.56;5076473;28;20047;-66
2023/12/21 09:13:06;;;;;;;6.68;2.40;;;;;;;9.99;93.65;99829.81;5080829;28;20068;-66
2023/12/21 09:15:32;;;;;;;5.80;2.53;;;;;;;10.01;93.38;99813.72;5086743;28;20032;-66
2023/12/21 09:17:57;;;;;;;7.97;2.70;;;;;;;10.01;93.44;99816.50;5079674;28;20035;-67
2023/12/21 09:20:24;;;;;;;7.70;2.70;;;;;;;10.02;93.25;99817.34;5074258;28;20025;-67
2023/12/21 09:22:49;;;;;;;6.15;2.85;;;;;;;10.02;93.38;99825.66;5079328;28;20035;-67
2023/12/21 09:25:14;;;;;;;8.82;2.75;;;;;;;10.03;93.54;99817.06;5082380;28;20028;-66
2023/12/21 09:27:40;;;;;;;5.10;2.67;;;;;;;10.02;93.44;99822.88;5088872;28;20486;-67
2023/12/21 09:30:05;;;;;;;5.55;2.65;;;;;;;10.02;93.77;99798.78;5090197;28;20070;-66
2023/12/21 09:32:31;;;;;;;9.18;2.83;;;;;;;10.01;93.67;99808.19;5089670;28;20028;-67
2023/12/21 09:34:57;;;;;;;6.03;2.65;;;;;;;10.03;93.69;99799.63;5086155;28;20107;-67
2023/12/21 09:37:22;;;;;;;6.53;2.55;;;;;;;10.05;93.59;99789.06;5072158;28;20021;-66
2023/12/21 09:39:47;;;;;;;8.38;2.92;;;;;;;10.07;93.53;99801.56;5068438;28;20050;-66
2023/12/21 09:42:14;;;;;;;8.98;2.55;;;;;;;10.09;93.14;99793.78;5071084;28;20025;-67
2023/12/21 09:44:42;;;;;;;10.18;2.72;;;;;;;10.08;93.13;99794.91;5081429;28;20082;-67
2023/12/21 09:47:07;;;;;;;8.68;2.30;;;;;;;10.11;92.92;99792.69;5083628;28;20424;-66
2023/12/21 09:49:36;;;;;;;6.93;1.90;;;;;;;10.13;92.68;99787.69;5079640;28;20017;-68
2023/12/21 09:52:04;;;;;;;4.53;1.75;;;;;;;10.13;92.95;99796.00;5091906;28;20035;-67
2023/12/21 09:54:30;;;;;;;6.00;1.83;;;;;;;10.14;92.70;99781.03;5082142;28;20024;-67
2023/12/21 09:56:56;;;;;;;6.30;1.85;;;;;;;10.13;92.20;99791.28;5090182;28;20043;-67
2023/12/21 09:59:22;;;;;;;8.93;2.00;;;;;;;10.15;92.29;99783.53;5078460;28;20157;-67
2023/12/21 10:01:50;;;;;;;7.20;1.75;;;;;;;10.17;92.15;99766.63;5076753;28;20035;-69
2023/12/21 10:04:16;;;;;;;10.20;2.05;;;;;;;10.19;92.07;99772.72;5076397;28;20063;-68
2023/12/21 10:06:41;;;;;;;7.47;2.05;;;;;;;10.20;91.98;99766.06;5075050;28;20087;-68
2023/12/21 10:09:06;;;;;;;11.00;1.88;;;;;;;10.21;91.92;99778.81;5085731;28;20036;-68
2023/12/21 10:11:32;;;;;;;6.47;2.10;;;;;;;10.25;92.09;99779.97;5091775;28;20059;-68
2023/12/21 10:14:01;;;;;;;8.25;2.28;;;;;;;10.25;91.85;99786.34;5080639;28;20027;-69
2023/12/21 10:16:26;;;;;;;5.95;1.65;;;;;;;10.26;92.17;99781.63;5077001;28;20635;-68
2023/12/21 10:18:51;;;;;;;8.15;1.90;;;;;;;10.29;92.05;99794.94;5081712;28;20131;-69
2023/12/21 10:21:17;;;;;;;6.00;1.73;;;;;;;10.34;92.23;99761.66;5085315;28;20036;-67
2023/12/21 10:23:42;;;;;;;10.35;2.05;;;;;;;10.34;92.01;99758.91;5092052;28;20016;-68
2023/12/21 10:26:11;;;;;;;8.25;2.13;;;;;;;10.32;92.52;99761.94;5081449;28;20060;-69
2023/12/21 10:28:36;;;;;;;15.30;2.90;;;;;;;10.37;92.47;99769.41;5076000;28;20446;-68
2023/12/21 10:31:04;;;;;;;8.45;1.90;;;;;;;10.39;92.66;99772.75;5088738;28;20031;-68
2023/12/21 10:33:30;;;;;;;9.57;2.50;;;;;;;10.38;93.24;99761.94;5092762;28;20017;-68
2023/12/21 10:35:57;;;;;;;7.20;1.63;;;;;;;10.37;93.33;99774.97;5086280;28;20021;-67
2023/12/21 10:38:23;;;;;;;9.13;1.98;;;;;;;10.38;93.16;99767.50;5080053;28;20040;-67
2023/12/21 10:40:49;;;;;;;6.13;1.63;;;;;;;10.41;93.24;99744.72;5082011;28;20055;-68
2023/12/21 10:43:15;;;;;;;8.95;2.00;;;;;;;10.43;93.29;99764.72;5090728;28;20613;-67
2023/12/21 10:45:45;;;;;;;6.05;1.55;;;;;;;10.43;93.37;99756.38;5092357;28;20115;-68
2023/12/21 10:48:16;;;;;;;4.45;1.40;;;;;;;10.45;93.57;99755.00;5081896;28;20042;-67
2023/12/21 10:50:46;;;;;;;5.18;1.50;;;;;;;10.47;93.54;99774.97;5090809;28;20116;-68
2023/12/21 10:53:13;;;;;;;10.18;2.10;;;;;;;10.47;93.66;99771.38;5079164;28;20031;-68
2023/12/21 10:55:40;;;;;;;8.82;1.73;;;;;;;10.49;93.87;99764.44;5089902;28;20034;-68
2023/12/21 10:58:06;;;;;;;9.77;1.80;;;;;;;10.50;93.98;99755.00;5087240;28;20036;-68
2023/12/21 11:00:33;;;;;;;5.40;1.42;;;;;;;10.50;94.02;99749.44;5084825;28;20034;-68
2023/12/21 11:02:59;;;;;;;6.53;1.65;;;;;;;10.49;94.08;99753.34;5073093;28;20040;-67
2023/12/21 11:05:26;;;;;;;8.77;1.80;;;;;;;10.51;94.19;99736.41;5077723;28;20431;-68
2023/12/21 11:07:58;;;;;;;6.25;1.30;;;;;;;10.53;94.57;99736.94;5092557;28;20514;-67
2023/12/21 11:10:24;;;;;;;9.38;1.70;;;;;;;10.53;94.31;99718.38;5089666;28;20562;-68
2023/12/21 11:12:50;;;;;;;6.38;1.77;;;;;;;10.54;94.34;99711.69;5077630;28;20779;-68
2023/12/21 11:15:20;;;;;;;5.18;1.65;;;;;;;10.56;93.91;99723.34;5076428;28;20043;-66
2023/12/21 11:18:11;;;;;;;5.78;1.38;;;;;;;10.61;93.85;99719.75;5076553;28;20024;-66
2023/12/21 11:20:43;;;;;;;7.65;1.73;;;;;;;10.56;93.89;99737.22;5071114;28;20101;-67
2023/12/21 11:23:09;;;;;;;3.90;1.55;;;;;;;10.57;93.97;99735.25;5084272;28;20028;-67